sensor_id;sensor_type;location;lat;lon;timestamp;pressure;altitude;pressure_sealevel;temperature;humidity
81464;BME280;70885;52.490;5.428;2023-06-24T09:54:38;102502.47;;;24.51;51.74
81464;BME280;70885;52.490;5.428;2023-06-24T09:57:06;102499.81;;;24.75;52.46
81464;BME280;70885;52.490;5.428;2023-06-24T10:24:11;102466.59;;;24.43;56.73
81464;BME280;70885;52.490;5.428;2023-06-24T10:26:39;102470.53;;;24.42;54.40
81464;BME280;70885;52.490;5.428;2023-06-24T10:34:28;102458.84;;;24.14;54.22
81464;BME280;70885;52.490;5.428;2023-06-24T10:36:55;102461.94;;;24.18;53.55
81464;BME280;70885;52.490;5.428;2023-06-24T10:41:26;102463.84;;;24.27;52.93
81464;BME280;70885;52.490;5.428;2023-06-24T10:43:56;102465.56;;;24.23;52.63
81464;BME280;70885;52.490;5.428;2023-06-24T10:46:26;102458.50;;;24.26;52.64
81464;BME280;70885;52.490;5.428;2023-06-24T10:48:52;102461.31;;;24.26;51.04
81464;BME280;70885;52.490;5.428;2023-06-24T10:51:19;102457.66;;;24.30;52.43
81464;BME280;70885;52.490;5.428;2023-06-24T10:53:46;102458.47;;;24.41;51.92
81464;BME280;70885;52.490;5.428;2023-06-24T10:56:12;102458.75;;;24.45;51.97
81464;BME280;70885;52.490;5.428;2023-06-24T10:58:40;102455.56;;;24.56;52.47
81464;BME280;70885;52.490;5.428;2023-06-24T11:01:08;102449.69;;;24.53;51.59
81464;BME280;70885;52.490;5.428;2023-06-24T11:03:35;102453.06;;;24.55;51.01
81464;BME280;70885;52.490;5.428;2023-06-24T11:06:04;102455.81;;;24.60;51.64
81464;BME280;70885;52.490;5.428;2023-06-24T11:08:30;102452.44;;;24.63;50.08
81464;BME280;70885;52.490;5.428;2023-06-24T11:10:57;102453.56;;;24.62;51.75
81464;BME280;70885;52.490;5.428;2023-06-24T11:13:24;102441.47;;;24.67;49.49
81464;BME280;70885;52.490;5.428;2023-06-24T11:15:50;102447.28;;;24.75;50.41
81464;BME280;70885;52.490;5.428;2023-06-24T11:18:17;102448.72;;;24.73;50.71
81464;BME280;70885;52.490;5.428;2023-06-24T11:20:43;102441.41;;;24.72;52.07
81464;BME280;70885;52.490;5.428;2023-06-24T11:23:10;102444.72;;;24.79;53.37
81464;BME280;70885;52.490;5.428;2023-06-24T11:25:42;102446.63;;;24.89;51.54
81464;BME280;70885;52.490;5.428;2023-06-24T11:28:16;102443.19;;;24.97;49.84
81464;BME280;70885;52.490;5.428;2023-06-24T11:30:47;102440.44;;;24.87;51.68
81464;BME280;70885;52.490;5.428;2023-06-24T11:33:26;102436.69;;;25.01;50.84
81464;BME280;70885;52.490;5.428;2023-06-24T11:35:52;102441.97;;;25.08;47.83
81464;BME280;70885;52.490;5.428;2023-06-24T11:38:19;102434.97;;;25.05;48.59
81464;BME280;70885;52.490;5.428;2023-06-24T11:40:48;102438.03;;;25.09;48.58
81464;BME280;70885;52.490;5.428;2023-06-24T11:43:14;102439.72;;;25.15;49.45
81464;BME280;70885;52.490;5.428;2023-06-24T11:45:41;102439.47;;;25.12;49.85
81464;BME280;70885;52.490;5.428;2023-06-24T11:48:07;102440.69;;;25.29;50.01
81464;BME280;70885;52.490;5.428;2023-06-24T11:50:35;102434.69;;;25.36;47.84
81464;BME280;70885;52.490;5.428;2023-06-24T11:53:02;102436.88;;;25.44;50.63
81464;BME280;70885;52.490;5.428;2023-06-24T11:55:31;102426.94;;;25.52;49.28
81464;BME280;70885;52.490;5.428;2023-06-24T11:57:59;102432.69;;;25.42;50.15
81464;BME280;70885;52.490;5.428;2023-06-24T12:00:31;102420.75;;;25.55;51.40
81464;BME280;70885;52.490;5.428;2023-06-24T12:03:02;102426.41;;;25.50;50.67
81464;BME280;70885;52.490;5.428;2023-06-24T12:05:33;102418.50;;;25.52;48.92
81464;BME280;70885;52.490;5.428;2023-06-24T12:08:06;102415.16;;;25.50;50.86
81464;BME280;70885;52.490;5.428;2023-06-24T12:10:34;102411.03;;;25.66;50.07
81464;BME280;70885;52.490;5.428;2023-06-24T12:13:03;102415.13;;;25.79;48.70
81464;BME280;70885;52.490;5.428;2023-06-24T12:15:30;102416.56;;;25.76;49.56
81464;BME280;70885;52.490;5.428;2023-06-24T12:17:57;102412.09;;;25.70;48.28
81464;BME280;70885;52.490;5.428;2023-06-24T12:20:25;102418.94;;;25.64;50.00
81464;BME280;70885;52.490;5.428;2023-06-24T12:22:56;102420.06;;;25.63;50.24
81464;BME280;70885;52.490;5.428;2023-06-24T12:25:22;102421.94;;;25.73;49.58
81464;BME280;70885;52.490;5.428;2023-06-24T12:27:50;102415.13;;;25.79;48.66
81464;BME280;70885;52.490;5.428;2023-06-24T12:30:17;102412.94;;;25.71;48.83
81464;BME280;70885;52.490;5.428;2023-06-24T12:32:43;102403.59;;;25.75;48.15
81464;BME280;70885;52.490;5.428;2023-06-24T12:35:11;102410.59;;;25.83;49.42
81464;BME280;70885;52.490;5.428;2023-06-24T12:37:38;102414.38;;;25.68;48.09
81464;BME280;70885;52.490;5.428;2023-06-24T12:40:05;102408.59;;;25.60;48.46
81464;BME280;70885;52.490;5.428;2023-06-24T12:42:32;102409.44;;;25.84;48.30
81464;BME280;70885;52.490;5.428;2023-06-24T12:44:59;102407.47;;;25.85;49.07
81464;BME280;70885;52.490;5.428;2023-06-24T12:47:25;102394.34;;;25.99;47.59
81464;BME280;70885;52.490;5.428;2023-06-24T12:49:52;102400.06;;;26.13;45.54
81464;BME280;70885;52.490;5.428;2023-06-24T12:52:19;102395.56;;;26.12;47.15
81464;BME280;70885;52.490;5.428;2023-06-24T12:54:46;102397.22;;;25.94;47.75
81464;BME280;70885;52.490;5.428;2023-06-24T12:57:14;102392.53;;;26.08;47.82
81464;BME280;70885;52.490;5.428;2023-06-24T12:59:41;102400.03;;;25.94;47.91
81464;BME280;70885;52.490;5.428;2023-06-24T13:02:08;102400.44;;;26.06;47.59
81464;BME280;70885;52.490;5.428;2023-06-24T13:04:34;102406.47;;;26.18;46.44
81464;BME280;70885;52.490;5.428;2023-06-24T13:07:01;102397.72;;;26.20;45.69
81464;BME280;70885;52.490;5.428;2023-06-24T13:09:27;102390.41;;;26.19;47.19
81464;BME280;70885;52.490;5.428;2023-06-24T13:11:54;102388.84;;;26.08;47.29
81464;BME280;70885;52.490;5.428;2023-06-24T13:14:20;102391.97;;;26.06;47.08
81464;BME280;70885;52.490;5.428;2023-06-24T13:16:47;102392.22;;;26.28;50.71
81464;BME280;70885;52.490;5.428;2023-06-24T13:19:14;102389.72;;;26.08;49.25
81464;BME280;70885;52.490;5.428;2023-06-24T13:21:42;102394.06;;;26.19;48.85
81464;BME280;70885;52.490;5.428;2023-06-24T13:24:08;102393.13;;;26.24;49.65
81464;BME280;70885;52.490;5.428;2023-06-24T13:26:35;102391.63;;;26.13;49.79
81464;BME280;70885;52.490;5.428;2023-06-24T13:29:01;102390.78;;;26.12;49.25
81464;BME280;70885;52.490;5.428;2023-06-24T13:31:29;102383.53;;;26.06;50.54
81464;BME280;70885;52.490;5.428;2023-06-24T13:33:55;102391.09;;;26.30;50.37
81464;BME280;70885;52.490;5.428;2023-06-24T13:36:35;102389.03;;;26.16;50.53
81464;BME280;70885;52.490;5.428;2023-06-24T13:39:05;102386.22;;;26.16;49.32
81464;BME280;70885;52.490;5.428;2023-06-24T13:41:32;102389.13;;;26.30;49.38
81464;BME280;70885;52.490;5.428;2023-06-24T13:44:00;102392.91;;;26.39;49.25
81464;BME280;70885;52.490;5.428;2023-06-24T13:46:28;102384.03;;;26.51;50.47
81464;BME280;70885;52.490;5.428;2023-06-24T13:48:55;102383.63;;;26.20;49.35
81464;BME280;70885;52.490;5.428;2023-06-24T13:51:22;102379.66;;;26.21;48.13
81464;BME280;70885;52.490;5.428;2023-06-24T13:53:50;102381.50;;;26.31;48.51
81464;BME280;70885;52.490;5.428;2023-06-24T13:56:18;102389.81;;;26.22;49.78
81464;BME280;70885;52.490;5.428;2023-06-24T13:58:46;102385.69;;;26.33;48.83
81464;BME280;70885;52.490;5.428;2023-06-24T14:01:13;102381.56;;;26.44;50.38
81464;BME280;70885;52.490;5.428;2023-06-24T14:03:39;102389.06;;;26.54;49.71
81464;BME280;70885;52.490;5.428;2023-06-24T14:06:06;102373.50;;;26.57;51.85
81464;BME280;70885;52.490;5.428;2023-06-24T14:08:33;102388.19;;;26.72;49.20
81464;BME280;70885;52.490;5.428;2023-06-24T14:11:00;102384.22;;;26.73;51.73
81464;BME280;70885;52.490;5.428;2023-06-24T14:13:27;102389.56;;;26.37;49.76
81464;BME280;70885;52.490;5.428;2023-06-24T14:15:55;102383.00;;;26.42;50.50
81464;BME280;70885;52.490;5.428;2023-06-24T14:18:21;102379.59;;;26.64;51.19
81464;BME280;70885;52.490;5.428;2023-06-24T14:20:48;102379.75;;;26.54;50.52
81464;BME280;70885;52.490;5.428;2023-06-24T14:23:15;102371.47;;;26.62;50.25
81464;BME280;70885;52.490;5.428;2023-06-24T14:25:41;102373.94;;;26.96;54.09
81464;BME280;70885;52.490;5.428;2023-06-24T14:28:08;102361.72;;;26.87;49.32
81464;BME280;70885;52.490;5.428;2023-06-24T14:30:34;102366.78;;;26.71;48.47
81464;BME280;70885;52.490;5.428;2023-06-24T14:33:02;102365.19;;;26.98;50.85
81464;BME280;70885;52.490;5.428;2023-06-24T14:35:28;102370.84;;;26.98;48.15
81464;BME280;70885;52.490;5.428;2023-06-24T14:37:55;102376.75;;;26.96;48.96
81464;BME280;70885;52.490;5.428;2023-06-24T14:40:21;102368.22;;;27.34;51.09
81464;BME280;70885;52.490;5.428;2023-06-24T14:42:48;102369.25;;;27.38;48.02
81464;BME280;70885;52.490;5.428;2023-06-24T14:45:14;102372.28;;;27.56;45.98
81464;BME280;70885;52.490;5.428;2023-06-24T14:47:41;102363.41;;;27.35;45.91
81464;BME280;70885;52.490;5.428;2023-06-24T14:50:07;102368.84;;;27.45;47.31
81464;BME280;70885;52.490;5.428;2023-06-24T14:52:34;102368.97;;;27.40;47.47
81464;BME280;70885;52.490;5.428;2023-06-24T14:55:00;102363.94;;;27.64;48.34
81464;BME280;70885;52.490;5.428;2023-06-24T14:57:27;102356.81;;;27.95;45.46
81464;BME280;70885;52.490;5.428;2023-06-24T14:59:53;102360.78;;;27.25;46.63
81464;BME280;70885;52.490;5.428;2023-06-24T15:02:20;102356.00;;;27.25;46.67
81464;BME280;70885;52.490;5.428;2023-06-24T15:04:47;102356.81;;;27.53;46.91
81464;BME280;70885;52.490;5.428;2023-06-24T15:07:13;102365.31;;;27.39;45.92
81464;BME280;70885;52.490;5.428;2023-06-24T15:09:40;102358.63;;;27.77;45.69
81464;BME280;70885;52.490;5.428;2023-06-24T15:12:06;102358.31;;;27.64;47.46
81464;BME280;70885;52.490;5.428;2023-06-24T15:14:33;102355.56;;;27.32;45.37
81464;BME280;70885;52.490;5.428;2023-06-24T15:16:59;102346.25;;;27.17;46.43
81464;BME280;70885;52.490;5.428;2023-06-24T15:19:26;102346.19;;;27.36;47.82
81464;BME280;70885;52.490;5.428;2023-06-24T15:21:53;102352.16;;;27.76;48.40
81464;BME280;70885;52.490;5.428;2023-06-24T15:24:19;102348.94;;;28.05;49.41
81464;BME280;70885;52.490;5.428;2023-06-24T15:26:45;102352.31;;;28.07;48.34
81464;BME280;70885;52.490;5.428;2023-06-24T15:29:12;102345.78;;;28.07;47.46
81464;BME280;70885;52.490;5.428;2023-06-24T15:31:38;102351.31;;;28.26;47.36
81464;BME280;70885;52.490;5.428;2023-06-24T15:34:05;102360.84;;;28.52;50.93
81464;BME280;70885;52.490;5.428;2023-06-24T15:36:32;102347.69;;;28.70;43.82
81464;BME280;70885;52.490;5.428;2023-06-24T15:38:58;102344.75;;;28.03;47.26
81464;BME280;70885;52.490;5.428;2023-06-24T15:41:25;102351.59;;;28.24;46.51
81464;BME280;70885;52.490;5.428;2023-06-24T15:43:51;102348.91;;;28.55;45.42
81464;BME280;70885;52.490;5.428;2023-06-24T15:46:18;102350.22;;;28.35;48.43
81464;BME280;70885;52.490;5.428;2023-06-24T15:48:44;102351.34;;;28.48;51.83
81464;BME280;70885;52.490;5.428;2023-06-24T15:51:11;102348.31;;;28.45;49.98
81464;BME280;70885;52.490;5.428;2023-06-24T15:53:37;102346.59;;;28.57;46.74
81464;BME280;70885;52.490;5.428;2023-06-24T15:56:04;102344.41;;;28.54;46.76
81464;BME280;70885;52.490;5.428;2023-06-24T15:58:30;102353.66;;;28.69;44.83
81464;BME280;70885;52.490;5.428;2023-06-24T16:00:57;102340.41;;;29.00;44.68
81464;BME280;70885;52.490;5.428;2023-06-24T16:03:23;102349.94;;;28.23;47.51
81464;BME280;70885;52.490;5.428;2023-06-24T16:05:50;102339.16;;;28.25;46.41
81464;BME280;70885;52.490;5.428;2023-06-24T16:08:16;102335.34;;;28.66;46.90
81464;BME280;70885;52.490;5.428;2023-06-24T16:10:43;102339.00;;;28.89;44.48
81464;BME280;70885;52.490;5.428;2023-06-24T16:13:10;102337.94;;;28.85;44.60
81464;BME280;70885;52.490;5.428;2023-06-24T16:15:39;102338.31;;;28.92;47.13
81464;BME280;70885;52.490;5.428;2023-06-24T16:18:06;102325.25;;;28.96;43.29
81464;BME280;70885;52.490;5.428;2023-06-24T16:20:32;102328.81;;;28.57;45.28
81464;BME280;70885;52.490;5.428;2023-06-24T16:22:59;102328.44;;;28.81;48.77
81464;BME280;70885;52.490;5.428;2023-06-24T16:25:28;102327.31;;;29.13;46.56
81464;BME280;70885;52.490;5.428;2023-06-24T16:27:55;102320.72;;;28.42;46.42
81464;BME280;70885;52.490;5.428;2023-06-24T16:30:22;102318.81;;;28.37;45.22
81464;BME280;70885;52.490;5.428;2023-06-24T16:32:49;102317.75;;;28.69;44.70
81464;BME280;70885;52.490;5.428;2023-06-24T16:35:16;102314.38;;;28.90;45.79
81464;BME280;70885;52.490;5.428;2023-06-24T16:37:43;102312.44;;;28.68;46.65
81464;BME280;70885;52.490;5.428;2023-06-24T16:40:09;102311.19;;;28.60;46.07
81464;BME280;70885;52.490;5.428;2023-06-24T16:42:36;102311.56;;;28.22;46.04
81464;BME280;70885;52.490;5.428;2023-06-24T16:45:03;102315.63;;;28.52;44.74
81464;BME280;70885;52.490;5.428;2023-06-24T16:47:29;102308.28;;;28.96;48.69
81464;BME280;70885;52.490;5.428;2023-06-24T16:49:56;102301.31;;;29.02;44.20
81464;BME280;70885;52.490;5.428;2023-06-24T16:52:22;102309.88;;;29.11;44.72
81464;BME280;70885;52.490;5.428;2023-06-24T16:54:49;102291.69;;;29.03;44.47
81464;BME280;70885;52.490;5.428;2023-06-24T16:57:16;102302.50;;;29.01;43.96
81464;BME280;70885;52.490;5.428;2023-06-24T16:59:43;102301.50;;;29.06;44.86
81464;BME280;70885;52.490;5.428;2023-06-24T17:02:09;102302.75;;;28.91;43.84
81464;BME280;70885;52.490;5.428;2023-06-24T17:04:36;102303.06;;;28.90;44.56
81464;BME280;70885;52.490;5.428;2023-06-24T17:07:02;102303.97;;;28.99;45.00
81464;BME280;70885;52.490;5.428;2023-06-24T17:09:29;102303.00;;;29.03;46.89
81464;BME280;70885;52.490;5.428;2023-06-24T17:11:56;102304.09;;;28.94;48.50
81464;BME280;70885;52.490;5.428;2023-06-24T17:14:22;102303.44;;;28.66;45.15
81464;BME280;70885;52.490;5.428;2023-06-24T17:16:49;102293.50;;;28.77;45.30
81464;BME280;70885;52.490;5.428;2023-06-24T17:19:15;102300.41;;;28.62;46.36
81464;BME280;70885;52.490;5.428;2023-06-24T17:21:42;102295.09;;;28.92;45.86
81464;BME280;70885;52.490;5.428;2023-06-24T17:24:08;102299.44;;;28.98;45.93
81464;BME280;70885;52.490;5.428;2023-06-24T17:26:35;102306.00;;;28.76;45.49
81464;BME280;70885;52.490;5.428;2023-06-24T17:29:01;102298.25;;;28.90;46.10
81464;BME280;70885;52.490;5.428;2023-06-24T17:31:28;102299.81;;;28.74;46.67
81464;BME280;70885;52.490;5.428;2023-06-24T17:33:55;102302.25;;;28.89;43.29
81464;BME280;70885;52.490;5.428;2023-06-24T17:36:24;102291.72;;;27.63;46.51
81464;BME280;70885;52.490;5.428;2023-06-24T17:38:51;102293.66;;;28.27;50.29
81464;BME280;70885;52.490;5.428;2023-06-24T17:41:17;102298.97;;;28.73;45.47
81464;BME280;70885;52.490;5.428;2023-06-24T17:43:44;102292.13;;;28.66;44.99
81464;BME280;70885;52.490;5.428;2023-06-24T17:46:10;102295.34;;;28.50;44.50
81464;BME280;70885;52.490;5.428;2023-06-24T17:48:37;102299.03;;;28.82;45.14
81464;BME280;70885;52.490;5.428;2023-06-24T17:51:03;102290.38;;;28.11;44.66
81464;BME280;70885;52.490;5.428;2023-06-24T17:53:32;102304.56;;;28.20;44.07
81464;BME280;70885;52.490;5.428;2023-06-24T17:55:59;102296.22;;;28.14;49.04
81464;BME280;70885;52.490;5.428;2023-06-24T17:58:25;102295.09;;;28.38;42.29
81464;BME280;70885;52.490;5.428;2023-06-24T18:00:52;102292.19;;;28.52;45.28
81464;BME280;70885;52.490;5.428;2023-06-24T18:03:18;102283.13;;;28.19;49.87
81464;BME280;70885;52.490;5.428;2023-06-24T18:05:45;102290.34;;;28.47;43.61
81464;BME280;70885;52.490;5.428;2023-06-24T18:08:11;102288.16;;;28.44;46.62
81464;BME280;70885;52.490;5.428;2023-06-24T18:10:38;102281.88;;;28.47;44.18
81464;BME280;70885;52.490;5.428;2023-06-24T18:13:05;102282.06;;;27.92;44.95
81464;BME280;70885;52.490;5.428;2023-06-24T18:15:32;102274.28;;;27.75;47.07
81464;BME280;70885;52.490;5.428;2023-06-24T18:17:58;102274.56;;;27.74;44.15
81464;BME280;70885;52.490;5.428;2023-06-24T18:20:25;102266.72;;;27.70;45.49
81464;BME280;70885;52.490;5.428;2023-06-24T18:22:51;102279.03;;;27.88;44.53
81464;BME280;70885;52.490;5.428;2023-06-24T18:25:18;102271.97;;;27.63;45.83
81464;BME280;70885;52.490;5.428;2023-06-24T18:27:44;102276.53;;;27.87;47.98
81464;BME280;70885;52.490;5.428;2023-06-24T18:30:11;102277.00;;;28.03;50.30
81464;BME280;70885;52.490;5.428;2023-06-24T18:32:37;102268.84;;;27.51;47.23
81464;BME280;70885;52.490;5.428;2023-06-24T18:35:04;102265.91;;;27.56;45.31
81464;BME280;70885;52.490;5.428;2023-06-24T18:37:31;102267.81;;;27.47;46.19
81464;BME280;70885;52.490;5.428;2023-06-24T18:39:59;102267.84;;;27.33;44.92
81464;BME280;70885;52.490;5.428;2023-06-24T18:42:26;102266.13;;;26.91;46.58
81464;BME280;70885;52.490;5.428;2023-06-24T18:44:52;102270.72;;;27.01;48.01
81464;BME280;70885;52.490;5.428;2023-06-24T18:47:19;102277.00;;;27.11;48.73
81464;BME280;70885;52.490;5.428;2023-06-24T18:49:46;102269.78;;;27.05;46.59
81464;BME280;70885;52.490;5.428;2023-06-24T18:52:12;102266.75;;;26.88;47.00
81464;BME280;70885;52.490;5.428;2023-06-24T18:54:38;102268.84;;;27.10;47.03
81464;BME280;70885;52.490;5.428;2023-06-24T18:57:05;102261.53;;;26.95;48.63
81464;BME280;70885;52.490;5.428;2023-06-24T18:59:33;102271.09;;;26.66;47.18
81464;BME280;70885;52.490;5.428;2023-06-24T19:01:59;102257.31;;;26.79;47.39
81464;BME280;70885;52.490;5.428;2023-06-24T19:04:26;102261.19;;;26.69;48.33
81464;BME280;70885;52.490;5.428;2023-06-24T19:06:53;102254.41;;;26.70;47.96
81464;BME280;70885;52.490;5.428;2023-06-24T19:09:19;102260.88;;;26.70;48.82
81464;BME280;70885;52.490;5.428;2023-06-24T19:11:46;102252.22;;;26.81;47.79
81464;BME280;70885;52.490;5.428;2023-06-24T19:14:12;102246.91;;;26.79;50.89
81464;BME280;70885;52.490;5.428;2023-06-24T19:16:39;102256.34;;;26.56;49.08
81464;BME280;70885;52.490;5.428;2023-06-24T19:19:05;102248.81;;;26.18;50.10
81464;BME280;70885;52.490;5.428;2023-06-24T19:21:32;102254.66;;;26.22;49.72
81464;BME280;70885;52.490;5.428;2023-06-24T19:23:59;102243.34;;;26.41;52.31
81464;BME280;70885;52.490;5.428;2023-06-24T19:26:25;102245.63;;;26.39;51.66
81464;BME280;70885;52.490;5.428;2023-06-24T19:28:52;102251.44;;;26.28;49.82
81464;BME280;70885;52.490;5.428;2023-06-24T19:31:19;102247.78;;;26.28;50.26
81464;BME280;70885;52.490;5.428;2023-06-24T19:33:46;102253.63;;;25.99;50.80
81464;BME280;70885;52.490;5.428;2023-06-24T19:36:12;102255.72;;;26.07;51.57
81464;BME280;70885;52.490;5.428;2023-06-24T19:38:39;102244.59;;;25.78;52.72
81464;BME280;70885;52.490;5.428;2023-06-24T19:41:05;102244.25;;;25.85;52.64
81464;BME280;70885;52.490;5.428;2023-06-24T19:43:32;102242.38;;;25.80;53.63
81464;BME280;70885;52.490;5.428;2023-06-24T19:45:58;102237.75;;;25.46;54.11
81464;BME280;70885;52.490;5.428;2023-06-24T19:48:25;102243.13;;;25.43;52.51
81464;BME280;70885;52.490;5.428;2023-06-24T19:50:53;102244.84;;;25.44;54.68
81464;BME280;70885;52.490;5.428;2023-06-24T19:53:20;102242.94;;;25.58;53.58
81464;BME280;70885;52.490;5.428;2023-06-24T19:55:46;102250.69;;;25.47;55.06
81464;BME280;70885;52.490;5.428;2023-06-24T19:58:13;102242.50;;;25.51;53.63
81464;BME280;70885;52.490;5.428;2023-06-24T20:00:39;102242.41;;;25.56;54.26
81464;BME280;70885;52.490;5.428;2023-06-24T20:03:06;102243.13;;;25.43;54.68
81464;BME280;70885;52.490;5.428;2023-06-24T20:05:32;102240.22;;;25.29;53.77
81464;BME280;70885;52.490;5.428;2023-06-24T20:07:59;102245.56;;;25.30;53.87
81464;BME280;70885;52.490;5.428;2023-06-24T20:10:25;102247.78;;;25.04;54.73
81464;BME280;70885;52.490;5.428;2023-06-24T20:12:52;102253.81;;;24.98;54.51
81464;BME280;70885;52.490;5.428;2023-06-24T20:15:19;102246.97;;;25.04;54.88
81464;BME280;70885;52.490;5.428;2023-06-24T20:17:46;102254.69;;;24.93;53.89
81464;BME280;70885;52.490;5.428;2023-06-24T20:20:13;102249.72;;;24.85;54.17
81464;BME280;70885;52.490;5.428;2023-06-24T20:22:40;102259.31;;;24.55;55.12
81464;BME280;70885;52.490;5.428;2023-06-24T20:25:07;102259.75;;;24.67;56.02
81464;BME280;70885;52.490;5.428;2023-06-24T20:27:34;102263.03;;;24.74;54.90
81464;BME280;70885;52.490;5.428;2023-06-24T20:30:00;102251.72;;;24.55;56.12
81464;BME280;70885;52.490;5.428;2023-06-24T20:32:27;102263.28;;;24.49;57.50
81464;BME280;70885;52.490;5.428;2023-06-24T20:34:53;102258.69;;;24.58;56.34
81464;BME280;70885;52.490;5.428;2023-06-24T20:37:20;102251.50;;;24.47;56.65
81464;BME280;70885;52.490;5.428;2023-06-24T20:39:47;102256.63;;;24.40;58.07
81464;BME280;70885;52.490;5.428;2023-06-24T20:42:13;102255.75;;;24.39;57.32
81464;BME280;70885;52.490;5.428;2023-06-24T20:44:40;102255.66;;;24.15;57.66
81464;BME280;70885;52.490;5.428;2023-06-24T20:47:06;102256.28;;;24.12;58.91
81464;BME280;70885;52.490;5.428;2023-06-24T20:49:33;102260.13;;;24.21;58.49
81464;BME280;70885;52.490;5.428;2023-06-24T20:51:59;102261.97;;;24.02;58.14
81464;BME280;70885;52.490;5.428;2023-06-24T20:54:26;102252.47;;;23.93;59.74
81464;BME280;70885;52.490;5.428;2023-06-24T20:56:53;102252.53;;;23.87;59.54
81464;BME280;70885;52.490;5.428;2023-06-24T20:59:20;102248.25;;;23.95;59.38
81464;BME280;70885;52.490;5.428;2023-06-24T21:01:46;102248.50;;;23.99;59.61
81464;BME280;70885;52.490;5.428;2023-06-24T21:04:13;102248.31;;;23.85;59.77
81464;BME280;70885;52.490;5.428;2023-06-24T21:06:41;102246.13;;;23.77;60.32
81464;BME280;70885;52.490;5.428;2023-06-24T21:09:08;102249.53;;;23.74;59.32
81464;BME280;70885;52.490;5.428;2023-06-24T21:11:34;102251.50;;;23.73;59.80
81464;BME280;70885;52.490;5.428;2023-06-24T21:14:01;102243.94;;;23.69;59.87
81464;BME280;70885;52.490;5.428;2023-06-24T21:16:27;102248.13;;;23.71;60.15
81464;BME280;70885;52.490;5.428;2023-06-24T21:18:54;102250.69;;;23.62;60.35
81464;BME280;70885;52.490;5.428;2023-06-24T21:21:20;102235.59;;;23.53;60.23
81464;BME280;70885;52.490;5.428;2023-06-24T21:23:47;102237.81;;;23.51;60.88
81464;BME280;70885;52.490;5.428;2023-06-24T21:26:13;102246.28;;;23.46;61.25
81464;BME280;70885;52.490;5.428;2023-06-24T21:28:40;102245.75;;;23.39;60.60
81464;BME280;70885;52.490;5.428;2023-06-24T21:31:06;102243.56;;;23.31;61.66
81464;BME280;70885;52.490;5.428;2023-06-24T21:33:33;102237.63;;;23.37;61.18
81464;BME280;70885;52.490;5.428;2023-06-24T21:35:59;102239.38;;;23.18;62.19
81464;BME280;70885;52.490;5.428;2023-06-24T21:38:27;102243.34;;;23.07;61.81
81464;BME280;70885;52.490;5.428;2023-06-24T21:40:54;102235.19;;;23.21;62.65
81464;BME280;70885;52.490;5.428;2023-06-24T21:43:20;102233.25;;;23.11;62.59
81464;BME280;70885;52.490;5.428;2023-06-24T21:45:47;102231.06;;;23.03;61.92
81464;BME280;70885;52.490;5.428;2023-06-24T21:48:13;102238.31;;;23.04;61.36
81464;BME280;70885;52.490;5.428;2023-06-24T21:50:40;102230.22;;;23.02;61.81
81464;BME280;70885;52.490;5.428;2023-06-24T21:53:06;102235.56;;;22.99;62.37
81464;BME280;70885;52.490;5.428;2023-06-24T21:55:33;102227.41;;;22.87;61.78
81464;BME280;70885;52.490;5.428;2023-06-24T21:57:59;102229.41;;;22.81;62.16
81464;BME280;70885;52.490;5.428;2023-06-24T22:00:26;102233.34;;;22.75;62.25
81464;BME280;70885;52.490;5.428;2023-06-24T22:02:53;102229.09;;;22.83;61.52
81464;BME280;70885;52.490;5.428;2023-06-24T22:05:21;102224.09;;;22.69;62.71
81464;BME280;70885;52.490;5.428;2023-06-24T22:07:59;102215.41;;;22.66;61.50
81464;BME280;70885;52.490;5.428;2023-06-24T22:10:26;102214.31;;;22.67;62.17
81464;BME280;70885;52.490;5.428;2023-06-24T22:12:52;102216.00;;;22.63;62.05
81464;BME280;70885;52.490;5.428;2023-06-24T22:15:19;102223.28;;;22.64;62.42
81464;BME280;70885;52.490;5.428;2023-06-24T22:17:45;102221.06;;;22.51;63.10
81464;BME280;70885;52.490;5.428;2023-06-24T22:20:12;102224.41;;;22.47;63.21
81464;BME280;70885;52.490;5.428;2023-06-24T22:22:43;102216.31;;;22.46;62.39
81464;BME280;70885;52.490;5.428;2023-06-24T22:25:10;102212.66;;;22.30;63.00
81464;BME280;70885;52.490;5.428;2023-06-24T22:27:37;102213.53;;;22.36;63.19
81464;BME280;70885;52.490;5.428;2023-06-24T22:30:07;102210.44;;;22.32;63.27
81464;BME280;70885;52.490;5.428;2023-06-24T22:32:35;102213.53;;;22.31;63.47
81464;BME280;70885;52.490;5.428;2023-06-24T22:35:02;102202.06;;;22.22;63.26
81464;BME280;70885;52.490;5.428;2023-06-24T22:37:29;102210.47;;;22.17;62.81
81464;BME280;70885;52.490;5.428;2023-06-24T22:39:55;102208.44;;;22.12;63.83
81464;BME280;70885;52.490;5.428;2023-06-24T22:42:22;102206.53;;;22.13;62.94
81464;BME280;70885;52.490;5.428;2023-06-24T22:44:48;102213.22;;;22.07;64.15
81464;BME280;70885;52.490;5.428;2023-06-24T22:47:15;102209.56;;;22.01;64.08
81464;BME280;70885;52.490;5.428;2023-06-24T22:49:41;102204.81;;;21.91;64.75
81464;BME280;70885;52.490;5.428;2023-06-24T22:52:08;102203.69;;;21.97;64.27
81464;BME280;70885;52.490;5.428;2023-06-24T22:54:34;102204.53;;;21.93;64.19
81464;BME280;70885;52.490;5.428;2023-06-24T22:57:01;102204.22;;;21.84;64.95
81464;BME280;70885;52.490;5.428;2023-06-24T22:59:27;102196.97;;;21.83;65.41
81464;BME280;70885;52.490;5.428;2023-06-24T23:01:54;102207.59;;;21.76;65.05
81464;BME280;70885;52.490;5.428;2023-06-24T23:04:21;102202.00;;;21.76;65.25
81464;BME280;70885;52.490;5.428;2023-06-24T23:06:47;102198.63;;;21.69;65.32
81464;BME280;70885;52.490;5.428;2023-06-24T23:09:14;102195.25;;;21.51;65.14
81464;BME280;70885;52.490;5.428;2023-06-24T23:11:42;102195.56;;;21.60;64.38
81464;BME280;70885;52.490;5.428;2023-06-24T23:14:10;102195.81;;;21.59;65.62